EJU87PG EBBR-LIRF
Flight info
| Callsign | EJU87PG |
|---|---|
| Flight time | 1h 39m |
| Altitude | 37000 |
| Route | ROUSY DCT GTQ DCT DEVDI DCT ODINA DCT EKPAL DCT TINKU DCT XIBIL |
| Aircraft | A320/M-SDE3FGHIRWY/LB1 |
Departure
| Time | 2026-05-05 08:44 |
|---|---|
| Airport | Brussels Airport (EBBR) |
Arrival
| Time | 2026-05-05 10:24 |
|---|---|
| Airport | Rome–Fiumicino Leonardo da Vinci International Airport (LIRF) |
| Time | Latitude | Longitude | Altitude | Speed | Heading |
|---|---|---|---|---|---|
| 2026-05-05 08:18 | 50.90178 | 4.47754 | 118 ft | 0 kts | 155° |
| 2026-05-05 08:30 | 50.90178 | 4.47753 | 121 ft | 0 kts | 155° |
| 2026-05-05 08:35 | 50.90188 | 4.47746 | 117 ft | 4 kts | 154° |
| 2026-05-05 08:35 | 50.90212 | 4.47726 | 117 ft | 4 kts | 146° |
| 2026-05-05 08:36 | 50.90232 | 4.47700 | 117 ft | 4 kts | 124° |
| 2026-05-05 08:36 | 50.90239 | 4.47668 | 116 ft | 2 kts | 66° |
| 2026-05-05 08:36 | 50.90238 | 4.47665 | 116 ft | 0 kts | 65° |
| 2026-05-05 08:38 | 50.90256 | 4.47728 | 119 ft | 11 kts | 65° |
| 2026-05-05 08:38 | 50.90295 | 4.47862 | 117 ft | 14 kts | 65° |
| 2026-05-05 08:39 | 50.90344 | 4.48017 | 120 ft | 17 kts | 46° |
| 2026-05-05 08:39 | 50.90438 | 4.48086 | 121 ft | 16 kts | 63° |
| 2026-05-05 08:39 | 50.90488 | 4.48257 | 119 ft | 20 kts | 65° |
| 2026-05-05 08:39 | 50.90546 | 4.48460 | 118 ft | 21 kts | 65° |
| 2026-05-05 08:40 | 50.90607 | 4.48672 | 119 ft | 22 kts | 65° |
| 2026-05-05 08:40 | 50.90671 | 4.48893 | 118 ft | 22 kts | 65° |
| 2026-05-05 08:40 | 50.90736 | 4.49116 | 121 ft | 22 kts | 65° |
| 2026-05-05 08:40 | 50.90799 | 4.49336 | 119 ft | 22 kts | 65° |
| 2026-05-05 08:41 | 50.90863 | 4.49558 | 122 ft | 23 kts | 65° |
| 2026-05-05 08:41 | 50.90929 | 4.49779 | 123 ft | 16 kts | 63° |
| 2026-05-05 08:41 | 50.91009 | 4.49891 | 118 ft | 12 kts | 27° |
| 2026-05-05 08:41 | 50.91065 | 4.49930 | 117 ft | 9 kts | 24° |
| 2026-05-05 08:42 | 50.91130 | 4.49923 | 117 ft | 11 kts | 312° |
| 2026-05-05 08:42 | 50.91127 | 4.49843 | 118 ft | 0 kts | 246° |
| 2026-05-05 08:43 | 50.91118 | 4.49810 | 118 ft | 19 kts | 246° |
| 2026-05-05 08:44 | 50.90945 | 4.49214 | 118 ft | 96 kts | 245° |
| 2026-05-05 08:44 | 50.90581 | 4.47956 | 119 ft | 153 kts | 245° |
| 2026-05-05 08:44 | 50.90087 | 4.46248 | 356 ft | 177 kts | 250° |
| 2026-05-05 08:44 | 50.89604 | 4.44458 | 1019 ft | 177 kts | 251° |
| 2026-05-05 08:45 | 50.89126 | 4.42613 | 1590 ft | 188 kts | 250° |
| 2026-05-05 08:45 | 50.88500 | 4.40710 | 2083 ft | 203 kts | 227° |
| 2026-05-05 08:45 | 50.87256 | 4.39677 | 2598 ft | 210 kts | 181° |
| 2026-05-05 08:45 | 50.85846 | 4.40269 | 2994 ft | 219 kts | 138° |
| 2026-05-05 08:46 | 50.84929 | 4.42219 | 3384 ft | 235 kts | 113° |
| 2026-05-05 08:46 | 50.84211 | 4.44674 | 3921 ft | 254 kts | 110° |
| 2026-05-05 08:46 | 50.83497 | 4.47262 | 4770 ft | 260 kts | 111° |
| 2026-05-05 08:46 | 50.82704 | 4.49870 | 5626 ft | 267 kts | 121° |
| 2026-05-05 08:47 | 50.81555 | 4.52232 | 6466 ft | 274 kts | 128° |
| 2026-05-05 08:47 | 50.80318 | 4.54549 | 7286 ft | 278 kts | 128° |
| 2026-05-05 08:47 | 50.79034 | 4.56871 | 8105 ft | 283 kts | 130° |
| 2026-05-05 08:47 | 50.77724 | 4.59205 | 8995 ft | 284 kts | 129° |
| 2026-05-05 08:48 | 50.76425 | 4.61521 | 9871 ft | 286 kts | 129° |
| 2026-05-05 08:48 | 50.75077 | 4.63935 | 10337 ft | 304 kts | 129° |
| 2026-05-05 08:48 | 50.73631 | 4.66539 | 10581 ft | 327 kts | 130° |
| 2026-05-05 08:48 | 50.72087 | 4.69318 | 10941 ft | 343 kts | 129° |
| 2026-05-05 08:49 | 50.70526 | 4.72205 | 11619 ft | 348 kts | 125° |
| 2026-05-05 08:49 | 50.69269 | 4.75474 | 12326 ft | 350 kts | 114° |
| 2026-05-05 08:49 | 50.68446 | 4.79095 | 13068 ft | 352 kts | 104° |
| 2026-05-05 08:49 | 50.67782 | 4.82826 | 13814 ft | 355 kts | 104° |
| 2026-05-05 08:50 | 50.67112 | 4.86533 | 14434 ft | 358 kts | 106° |
| 2026-05-05 08:50 | 50.66170 | 4.90197 | 15033 ft | 364 kts | 117° |
| 2026-05-05 08:50 | 50.64765 | 4.93528 | 15694 ft | 367 kts | 129° |
| 2026-05-05 08:50 | 50.62987 | 4.96446 | 16326 ft | 371 kts | 135° |
| 2026-05-05 08:51 | 50.61146 | 4.99297 | 17034 ft | 372 kts | 135° |
| 2026-05-05 08:51 | 50.59295 | 5.02160 | 17704 ft | 374 kts | 135° |
| 2026-05-05 08:51 | 50.57437 | 5.05034 | 18353 ft | 376 kts | 136° |
| 2026-05-05 08:51 | 50.55568 | 5.07925 | 18832 ft | 381 kts | 135° |
| 2026-05-05 08:52 | 50.53670 | 5.10856 | 19373 ft | 384 kts | 136° |
| 2026-05-05 08:52 | 50.51778 | 5.13774 | 19880 ft | 388 kts | 136° |
| 2026-05-05 08:52 | 50.49840 | 5.16756 | 20402 ft | 392 kts | 136° |
| 2026-05-05 08:52 | 50.47881 | 5.19769 | 20913 ft | 396 kts | 136° |
| 2026-05-05 08:53 | 50.45907 | 5.22804 | 21453 ft | 399 kts | 136° |
| 2026-05-05 08:53 | 50.43917 | 5.25855 | 21971 ft | 401 kts | 136° |
| 2026-05-05 08:53 | 50.41913 | 5.28924 | 22467 ft | 404 kts | 136° |
| 2026-05-05 08:53 | 50.39895 | 5.32016 | 22956 ft | 407 kts | 136° |
| 2026-05-05 08:54 | 50.37892 | 5.35086 | 23423 ft | 410 kts | 136° |
| 2026-05-05 08:54 | 50.35847 | 5.38210 | 23813 ft | 412 kts | 136° |
| 2026-05-05 08:54 | 50.33784 | 5.41353 | 24208 ft | 415 kts | 137° |
| 2026-05-05 08:54 | 50.31713 | 5.44507 | 24589 ft | 417 kts | 137° |
| 2026-05-05 08:55 | 50.29630 | 5.47678 | 24961 ft | 419 kts | 137° |
| 2026-05-05 08:55 | 50.27540 | 5.50858 | 25366 ft | 420 kts | 137° |
| 2026-05-05 08:55 | 50.25446 | 5.54040 | 25746 ft | 421 kts | 138° |
| 2026-05-05 08:55 | 50.23338 | 5.57234 | 26112 ft | 423 kts | 138° |
| 2026-05-05 08:56 | 50.21247 | 5.60395 | 26461 ft | 425 kts | 138° |
| 2026-05-05 08:56 | 50.19119 | 5.63609 | 26813 ft | 427 kts | 138° |
| 2026-05-05 08:56 | 50.16981 | 5.66836 | 27159 ft | 429 kts | 139° |
| 2026-05-05 08:56 | 50.14832 | 5.70072 | 27488 ft | 430 kts | 139° |
| 2026-05-05 08:57 | 50.12672 | 5.73320 | 27820 ft | 432 kts | 139° |
| 2026-05-05 08:57 | 50.10500 | 5.76567 | 28126 ft | 433 kts | 140° |
| 2026-05-05 08:57 | 50.08134 | 5.79455 | 28413 ft | 432 kts | 149° |
| 2026-05-05 08:57 | 50.05513 | 5.81719 | 28706 ft | 431 kts | 158° |
| 2026-05-05 08:58 | 50.02707 | 5.83339 | 28992 ft | 431 kts | 163° |
| 2026-05-05 08:58 | 49.99858 | 5.84798 | 29283 ft | 432 kts | 163° |
| 2026-05-05 08:58 | 49.97035 | 5.86248 | 29549 ft | 434 kts | 163° |
| 2026-05-05 08:58 | 49.94167 | 5.87725 | 29810 ft | 435 kts | 163° |
| 2026-05-05 08:59 | 49.91290 | 5.89208 | 30033 ft | 436 kts | 163° |
| 2026-05-05 08:59 | 49.88411 | 5.90690 | 30304 ft | 435 kts | 164° |
| 2026-05-05 08:59 | 49.85530 | 5.92172 | 30515 ft | 437 kts | 165° |
| 2026-05-05 08:59 | 49.82643 | 5.93656 | 30773 ft | 437 kts | 165° |
| 2026-05-05 09:00 | 49.79767 | 5.95133 | 31115 ft | 433 kts | 165° |
| 2026-05-05 09:00 | 49.76924 | 5.96598 | 31532 ft | 429 kts | 165° |
| 2026-05-05 09:00 | 49.74144 | 5.98029 | 31882 ft | 426 kts | 166° |
| 2026-05-05 09:00 | 49.71342 | 5.99465 | 32216 ft | 423 kts | 166° |
| 2026-05-05 09:01 | 49.68555 | 6.00889 | 32546 ft | 421 kts | 166° |
| 2026-05-05 09:01 | 49.65778 | 6.02304 | 32871 ft | 419 kts | 166° |
| 2026-05-05 09:01 | 49.63015 | 6.03710 | 33202 ft | 417 kts | 166° |
| 2026-05-05 09:01 | 49.60270 | 6.05106 | 33507 ft | 415 kts | 166° |
| 2026-05-05 09:02 | 49.57533 | 6.06495 | 33841 ft | 413 kts | 166° |
| 2026-05-05 09:02 | 49.55731 | 6.07408 | 34029 ft | 411 kts | 166° |
| 2026-05-05 09:02 | 49.53014 | 6.08780 | 34269 ft | 411 kts | 166° |
| 2026-05-05 09:02 | 49.49427 | 6.10666 | 34542 ft | 413 kts | 161° |
| 2026-05-05 09:03 | 49.46853 | 6.12693 | 34731 ft | 419 kts | 152° |
| 2026-05-05 09:03 | 49.44490 | 6.15375 | 34916 ft | 425 kts | 146° |
| 2026-05-05 09:03 | 49.42196 | 6.18234 | 35099 ft | 425 kts | 146° |
| 2026-05-05 09:03 | 49.39897 | 6.21092 | 35283 ft | 426 kts | 146° |
| 2026-05-05 09:04 | 49.37591 | 6.23952 | 35464 ft | 426 kts | 146° |
| 2026-05-05 09:04 | 49.32999 | 6.29628 | 35789 ft | 427 kts | 146° |
| 2026-05-05 09:04 | 49.30683 | 6.32481 | 35967 ft | 427 kts | 146° |
| 2026-05-05 09:05 | 49.28367 | 6.35330 | 36134 ft | 428 kts | 145° |
| 2026-05-05 09:05 | 49.26045 | 6.38184 | 36296 ft | 428 kts | 145° |
| 2026-05-05 09:05 | 49.23723 | 6.41040 | 36455 ft | 428 kts | 145° |
| 2026-05-05 09:06 | 49.19855 | 6.45784 | 36694 ft | 429 kts | 145° |
| 2026-05-05 09:06 | 49.17526 | 6.48637 | 36854 ft | 430 kts | 145° |
| 2026-05-05 09:06 | 49.15190 | 6.51494 | 36884 ft | 430 kts | 145° |
| 2026-05-05 09:07 | 49.09750 | 6.58125 | 36877 ft | 432 kts | 145° |
| 2026-05-05 09:07 | 49.05843 | 6.62872 | 36869 ft | 432 kts | 145° |
| 2026-05-05 09:08 | 49.01163 | 6.68564 | 36879 ft | 430 kts | 145° |
| 2026-05-05 09:08 | 48.96146 | 6.73354 | 36887 ft | 423 kts | 159° |
| 2026-05-05 09:09 | 48.90770 | 6.77006 | 36887 ft | 423 kts | 159° |
| 2026-05-05 09:09 | 48.85432 | 6.80633 | 36883 ft | 424 kts | 159° |
| 2026-05-05 09:10 | 48.80051 | 6.84296 | 36889 ft | 424 kts | 159° |
| 2026-05-05 09:10 | 48.74663 | 6.87958 | 36880 ft | 425 kts | 159° |
| 2026-05-05 09:11 | 48.69265 | 6.91607 | 36885 ft | 425 kts | 159° |
| 2026-05-05 09:11 | 48.63902 | 6.95225 | 36893 ft | 425 kts | 159° |
| 2026-05-05 09:12 | 48.58497 | 6.98861 | 36880 ft | 425 kts | 159° |
| 2026-05-05 09:12 | 48.53087 | 7.02495 | 36893 ft | 426 kts | 159° |
| 2026-05-05 09:13 | 48.47676 | 7.06131 | 36905 ft | 426 kts | 159° |
| 2026-05-05 09:13 | 48.42258 | 7.09762 | 36906 ft | 426 kts | 159° |
| 2026-05-05 09:14 | 48.36886 | 7.13349 | 36900 ft | 425 kts | 159° |
| 2026-05-05 09:14 | 48.31471 | 7.16952 | 36901 ft | 426 kts | 159° |
| 2026-05-05 09:15 | 48.26053 | 7.20552 | 36903 ft | 426 kts | 159° |
| 2026-05-05 09:15 | 48.20635 | 7.24135 | 36890 ft | 425 kts | 159° |
| 2026-05-05 09:16 | 48.15261 | 7.27693 | 36881 ft | 425 kts | 159° |
| 2026-05-05 09:16 | 48.09855 | 7.31259 | 36890 ft | 424 kts | 159° |
| 2026-05-05 09:17 | 48.04449 | 7.34807 | 36898 ft | 424 kts | 159° |
| 2026-05-05 09:17 | 47.99039 | 7.38348 | 36902 ft | 425 kts | 159° |
| 2026-05-05 09:18 | 47.93633 | 7.41893 | 36897 ft | 424 kts | 159° |
| 2026-05-05 09:18 | 47.88272 | 7.45415 | 36896 ft | 424 kts | 159° |
| 2026-05-05 09:19 | 47.82873 | 7.48931 | 36900 ft | 423 kts | 159° |
| 2026-05-05 09:19 | 47.77474 | 7.52435 | 36902 ft | 423 kts | 159° |
| 2026-05-05 09:20 | 47.72078 | 7.55963 | 36897 ft | 424 kts | 159° |
| 2026-05-05 09:20 | 47.66765 | 7.59688 | 36878 ft | 426 kts | 157° |
| 2026-05-05 09:21 | 47.61436 | 7.63534 | 36881 ft | 426 kts | 157° |
| 2026-05-05 09:21 | 47.56087 | 7.67334 | 36897 ft | 426 kts | 158° |
| 2026-05-05 09:22 | 47.50719 | 7.71086 | 36893 ft | 427 kts | 158° |
| 2026-05-05 09:22 | 47.45382 | 7.74808 | 36904 ft | 427 kts | 158° |
| 2026-05-05 09:23 | 47.40004 | 7.78562 | 36901 ft | 427 kts | 158° |
| 2026-05-05 09:23 | 47.34625 | 7.82311 | 36913 ft | 428 kts | 158° |
| 2026-05-05 09:24 | 47.29243 | 7.86042 | 36912 ft | 428 kts | 158° |
| 2026-05-05 09:24 | 47.23856 | 7.89778 | 36912 ft | 428 kts | 158° |
| 2026-05-05 09:25 | 47.18466 | 7.93499 | 36910 ft | 428 kts | 158° |
| 2026-05-05 09:25 | 47.13114 | 7.97189 | 36905 ft | 428 kts | 158° |
| 2026-05-05 09:26 | 47.07714 | 8.00918 | 36897 ft | 429 kts | 158° |
| 2026-05-05 09:26 | 47.02313 | 8.04634 | 36915 ft | 429 kts | 158° |
| 2026-05-05 09:27 | 46.96903 | 8.08340 | 36912 ft | 429 kts | 158° |
| 2026-05-05 09:27 | 46.91526 | 8.12017 | 36922 ft | 430 kts | 158° |
| 2026-05-05 09:28 | 46.86103 | 8.15722 | 36913 ft | 431 kts | 159° |
| 2026-05-05 09:28 | 46.80670 | 8.19417 | 36864 ft | 431 kts | 159° |
| 2026-05-05 09:29 | 46.75268 | 8.23078 | 36873 ft | 431 kts | 159° |
| 2026-05-05 09:29 | 46.69824 | 8.26766 | 36874 ft | 431 kts | 159° |
| 2026-05-05 09:30 | 46.64377 | 8.30455 | 36894 ft | 433 kts | 159° |
| 2026-05-05 09:30 | 46.58912 | 8.34143 | 36918 ft | 433 kts | 159° |
| 2026-05-05 09:31 | 46.53437 | 8.37820 | 36943 ft | 434 kts | 159° |
| 2026-05-05 09:31 | 46.48004 | 8.41467 | 36993 ft | 433 kts | 159° |
| 2026-05-05 09:32 | 46.42535 | 8.45144 | 37009 ft | 434 kts | 159° |
| 2026-05-05 09:32 | 46.37057 | 8.48817 | 37008 ft | 434 kts | 159° |
| 2026-05-05 09:33 | 46.31576 | 8.52468 | 37038 ft | 434 kts | 159° |
| 2026-05-05 09:33 | 46.26128 | 8.56087 | 37026 ft | 433 kts | 159° |
| 2026-05-05 09:34 | 46.20657 | 8.59724 | 37015 ft | 433 kts | 160° |
| 2026-05-05 09:34 | 46.15165 | 8.63353 | 37019 ft | 434 kts | 160° |
| 2026-05-05 09:35 | 46.09731 | 8.67179 | 37025 ft | 438 kts | 152° |
| 2026-05-05 09:35 | 46.02123 | 8.74454 | 37008 ft | 440 kts | 151° |
| 2026-05-05 09:36 | 45.97012 | 8.79308 | 37010 ft | 440 kts | 152° |
| 2026-05-05 09:36 | 45.91893 | 8.84162 | 37019 ft | 441 kts | 152° |
| 2026-05-05 09:37 | 45.86773 | 8.89016 | 37020 ft | 441 kts | 152° |
| 2026-05-05 09:37 | 45.81689 | 8.93830 | 37014 ft | 441 kts | 152° |
| 2026-05-05 09:38 | 45.76564 | 8.98669 | 37014 ft | 441 kts | 152° |
| 2026-05-05 09:38 | 45.71437 | 9.03497 | 37015 ft | 441 kts | 152° |
| 2026-05-05 09:39 | 45.66301 | 9.08319 | 36994 ft | 442 kts | 152° |
| 2026-05-05 09:39 | 45.61200 | 9.13102 | 36993 ft | 442 kts | 152° |
| 2026-05-05 09:40 | 45.56054 | 9.17910 | 36995 ft | 442 kts | 152° |
| 2026-05-05 09:40 | 45.50908 | 9.22724 | 37000 ft | 442 kts | 152° |
| 2026-05-05 09:41 | 45.45760 | 9.27524 | 37004 ft | 442 kts | 152° |
| 2026-05-05 09:41 | 45.40641 | 9.32281 | 37005 ft | 442 kts | 152° |
| 2026-05-05 09:42 | 45.35482 | 9.37065 | 36969 ft | 443 kts | 152° |
| 2026-05-05 09:42 | 45.30304 | 9.41850 | 37038 ft | 444 kts | 152° |
| 2026-05-05 09:43 | 45.25117 | 9.46640 | 37017 ft | 445 kts | 152° |
| 2026-05-05 09:43 | 45.19924 | 9.51425 | 37001 ft | 445 kts | 152° |
| 2026-05-05 09:44 | 45.14754 | 9.56174 | 36990 ft | 446 kts | 153° |
| 2026-05-05 09:44 | 45.09529 | 9.60956 | 36988 ft | 447 kts | 153° |
| 2026-05-05 09:45 | 45.04302 | 9.65745 | 36970 ft | 448 kts | 152° |
| 2026-05-05 09:45 | 44.99051 | 9.70544 | 36965 ft | 450 kts | 153° |
| 2026-05-05 09:46 | 44.93831 | 9.75303 | 36958 ft | 450 kts | 153° |
| 2026-05-05 09:46 | 44.88566 | 9.80090 | 36963 ft | 451 kts | 153° |
| 2026-05-05 09:47 | 44.83292 | 9.84875 | 36972 ft | 451 kts | 153° |
| 2026-05-05 09:47 | 44.78011 | 9.89655 | 36986 ft | 451 kts | 153° |
| 2026-05-05 09:48 | 44.72726 | 9.94421 | 36964 ft | 452 kts | 153° |
| 2026-05-05 09:48 | 44.67475 | 9.99159 | 36976 ft | 452 kts | 153° |
| 2026-05-05 09:49 | 44.62181 | 10.03913 | 36983 ft | 452 kts | 153° |
| 2026-05-05 09:49 | 44.56873 | 10.08674 | 36994 ft | 453 kts | 153° |
| 2026-05-05 09:50 | 44.51556 | 10.13433 | 36975 ft | 454 kts | 153° |
| 2026-05-05 09:50 | 44.46069 | 10.17504 | 36976 ft | 445 kts | 165° |
| 2026-05-05 09:51 | 44.40271 | 10.20568 | 36967 ft | 446 kts | 165° |
| 2026-05-05 09:51 | 44.34467 | 10.23643 | 36981 ft | 446 kts | 165° |
| 2026-05-05 09:52 | 44.28661 | 10.26708 | 36983 ft | 446 kts | 165° |
| 2026-05-05 09:52 | 44.22891 | 10.29748 | 36988 ft | 446 kts | 165° |
| 2026-05-05 09:53 | 44.17089 | 10.32804 | 36996 ft | 446 kts | 165° |
| 2026-05-05 09:53 | 44.11280 | 10.35844 | 36970 ft | 447 kts | 165° |
| 2026-05-05 09:54 | 44.05463 | 10.38888 | 36973 ft | 448 kts | 165° |
| 2026-05-05 09:54 | 43.99661 | 10.41926 | 36978 ft | 449 kts | 165° |
| 2026-05-05 09:55 | 43.93812 | 10.44977 | 36982 ft | 449 kts | 165° |
| 2026-05-05 09:55 | 43.87952 | 10.48026 | 36992 ft | 450 kts | 165° |
| 2026-05-05 09:56 | 43.82084 | 10.51072 | 36990 ft | 451 kts | 165° |
| 2026-05-05 09:56 | 43.76246 | 10.54095 | 36996 ft | 451 kts | 165° |
| 2026-05-05 09:57 | 43.70335 | 10.56974 | 36989 ft | 450 kts | 167° |
| 2026-05-05 09:57 | 43.64381 | 10.59670 | 36985 ft | 451 kts | 168° |
| 2026-05-05 09:58 | 43.58406 | 10.62375 | 37003 ft | 452 kts | 167° |
| 2026-05-05 09:58 | 43.52429 | 10.65136 | 37004 ft | 453 kts | 167° |
| 2026-05-05 09:59 | 43.46492 | 10.67902 | 37018 ft | 453 kts | 167° |
| 2026-05-05 09:59 | 43.40513 | 10.70668 | 37024 ft | 453 kts | 168° |
| 2026-05-05 10:00 | 43.34537 | 10.73419 | 37033 ft | 453 kts | 168° |
| 2026-05-05 10:00 | 43.28558 | 10.76159 | 37032 ft | 453 kts | 168° |
| 2026-05-05 10:01 | 43.22625 | 10.78877 | 37037 ft | 452 kts | 168° |
| 2026-05-05 10:01 | 43.19641 | 10.80243 | 36792 ft | 452 kts | 167° |
| 2026-05-05 10:01 | 43.16659 | 10.81611 | 36533 ft | 452 kts | 168° |
| 2026-05-05 10:02 | 43.13681 | 10.82971 | 36273 ft | 451 kts | 168° |
| 2026-05-05 10:02 | 43.10700 | 10.84327 | 36005 ft | 452 kts | 168° |
| 2026-05-05 10:02 | 43.07715 | 10.85683 | 35746 ft | 452 kts | 168° |
| 2026-05-05 10:02 | 43.04721 | 10.87041 | 34963 ft | 455 kts | 168° |
| 2026-05-05 10:03 | 43.01706 | 10.88407 | 34079 ft | 458 kts | 168° |
| 2026-05-05 10:03 | 42.98672 | 10.89782 | 33127 ft | 460 kts | 168° |
| 2026-05-05 10:03 | 42.95666 | 10.91148 | 32136 ft | 462 kts | 167° |
| 2026-05-05 10:03 | 42.92604 | 10.92540 | 31089 ft | 466 kts | 167° |
| 2026-05-05 10:04 | 42.89528 | 10.93936 | 30054 ft | 467 kts | 167° |
| 2026-05-05 10:04 | 42.86431 | 10.95338 | 28951 ft | 468 kts | 167° |
| 2026-05-05 10:04 | 42.83413 | 10.96844 | 28714 ft | 456 kts | 160° |
| 2026-05-05 10:04 | 42.80705 | 10.98995 | 28560 ft | 447 kts | 149° |
| 2026-05-05 10:05 | 42.78389 | 11.01772 | 28298 ft | 442 kts | 137° |
| 2026-05-05 10:05 | 42.76517 | 11.05080 | 27819 ft | 443 kts | 127° |
| 2026-05-05 10:05 | 42.74879 | 11.08543 | 27314 ft | 438 kts | 127° |
| 2026-05-05 10:05 | 42.73248 | 11.12021 | 26824 ft | 433 kts | 127° |
| 2026-05-05 10:06 | 42.71644 | 11.15445 | 25960 ft | 426 kts | 126° |
| 2026-05-05 10:06 | 42.70065 | 11.18808 | 25306 ft | 419 kts | 127° |
| 2026-05-05 10:06 | 42.68326 | 11.21928 | 24401 ft | 412 kts | 137° |
| 2026-05-05 10:06 | 42.66399 | 11.24765 | 23613 ft | 405 kts | 137° |
| 2026-05-05 10:07 | 42.64499 | 11.27563 | 22698 ft | 400 kts | 137° |
| 2026-05-05 10:07 | 42.62628 | 11.30320 | 21815 ft | 394 kts | 137° |
| 2026-05-05 10:07 | 42.60786 | 11.33035 | 20975 ft | 388 kts | 137° |
| 2026-05-05 10:07 | 42.58993 | 11.35675 | 20203 ft | 383 kts | 137° |
| 2026-05-05 10:08 | 42.57201 | 11.38314 | 19430 ft | 378 kts | 137° |
| 2026-05-05 10:08 | 42.55436 | 11.40914 | 18733 ft | 371 kts | 137° |
| 2026-05-05 10:08 | 42.53740 | 11.43419 | 18529 ft | 350 kts | 137° |
| 2026-05-05 10:08 | 42.52122 | 11.45811 | 18006 ft | 340 kts | 137° |
| 2026-05-05 10:09 | 42.50536 | 11.48148 | 17346 ft | 335 kts | 137° |
| 2026-05-05 10:09 | 42.48958 | 11.50456 | 16795 ft | 332 kts | 137° |
| 2026-05-05 10:09 | 42.47385 | 11.52743 | 16351 ft | 331 kts | 137° |
| 2026-05-05 10:09 | 42.45823 | 11.55016 | 15878 ft | 329 kts | 137° |
| 2026-05-05 10:10 | 42.44272 | 11.57275 | 15419 ft | 326 kts | 137° |
| 2026-05-05 10:10 | 42.42752 | 11.59490 | 14946 ft | 325 kts | 137° |
| 2026-05-05 10:10 | 42.41219 | 11.61730 | 14490 ft | 325 kts | 137° |
| 2026-05-05 10:10 | 42.39672 | 11.63985 | 14007 ft | 329 kts | 137° |
| 2026-05-05 10:11 | 42.38120 | 11.66248 | 13701 ft | 325 kts | 137° |
| 2026-05-05 10:11 | 42.36603 | 11.68467 | 13471 ft | 318 kts | 137° |
| 2026-05-05 10:11 | 42.35126 | 11.70627 | 13275 ft | 307 kts | 137° |
| 2026-05-05 10:11 | 42.33689 | 11.72724 | 12735 ft | 302 kts | 137° |
| 2026-05-05 10:12 | 42.32270 | 11.74786 | 12164 ft | 298 kts | 138° |
| 2026-05-05 10:12 | 42.30863 | 11.76829 | 11592 ft | 295 kts | 138° |
| 2026-05-05 10:12 | 42.29490 | 11.78821 | 11044 ft | 292 kts | 138° |
| 2026-05-05 10:12 | 42.28113 | 11.80819 | 10509 ft | 289 kts | 138° |
| 2026-05-05 10:13 | 42.26748 | 11.82799 | 10236 ft | 287 kts | 138° |
| 2026-05-05 10:13 | 42.25416 | 11.84737 | 9966 ft | 276 kts | 138° |
| 2026-05-05 10:13 | 42.24109 | 11.86631 | 9643 ft | 278 kts | 138° |
| 2026-05-05 10:13 | 42.22800 | 11.88518 | 9129 ft | 274 kts | 138° |
| 2026-05-05 10:14 | 42.21496 | 11.90396 | 8641 ft | 276 kts | 138° |
| 2026-05-05 10:14 | 42.20188 | 11.92281 | 8344 ft | 272 kts | 138° |
| 2026-05-05 10:14 | 42.18931 | 11.94097 | 7924 ft | 266 kts | 138° |
| 2026-05-05 10:14 | 42.17671 | 11.95913 | 7341 ft | 264 kts | 137° |
| 2026-05-05 10:15 | 42.16422 | 11.97714 | 6762 ft | 262 kts | 137° |
| 2026-05-05 10:15 | 42.15185 | 11.99499 | 6284 ft | 256 kts | 138° |
| 2026-05-05 10:15 | 42.14018 | 12.01188 | 6042 ft | 239 kts | 137° |
| 2026-05-05 10:15 | 42.12898 | 12.02803 | 5611 ft | 233 kts | 138° |
| 2026-05-05 10:16 | 42.11789 | 12.04394 | 5239 ft | 233 kts | 138° |
| 2026-05-05 10:16 | 42.10646 | 12.06025 | 4596 ft | 246 kts | 138° |
| 2026-05-05 10:16 | 42.09450 | 12.07730 | 4128 ft | 249 kts | 138° |
| 2026-05-05 10:16 | 42.08314 | 12.09364 | 4058 ft | 236 kts | 138° |
| 2026-05-05 10:17 | 42.07228 | 12.10934 | 3973 ft | 223 kts | 138° |
| 2026-05-05 10:17 | 42.06196 | 12.12422 | 3875 ft | 212 kts | 138° |
| 2026-05-05 10:17 | 42.05217 | 12.13831 | 3785 ft | 201 kts | 139° |
| 2026-05-05 10:17 | 42.04278 | 12.15180 | 3698 ft | 195 kts | 139° |
| 2026-05-05 10:18 | 42.03354 | 12.16504 | 3609 ft | 193 kts | 139° |
| 2026-05-05 10:18 | 42.02438 | 12.17812 | 3534 ft | 192 kts | 139° |
| 2026-05-05 10:18 | 42.01489 | 12.18944 | 3450 ft | 176 kts | 155° |
| 2026-05-05 10:18 | 42.00403 | 12.19516 | 3257 ft | 161 kts | 167° |
| 2026-05-05 10:19 | 41.99377 | 12.19946 | 3058 ft | 148 kts | 167° |
| 2026-05-05 10:19 | 41.98425 | 12.20345 | 2869 ft | 139 kts | 166° |
| 2026-05-05 10:19 | 41.97525 | 12.20722 | 2698 ft | 134 kts | 165° |
| 2026-05-05 10:19 | 41.96643 | 12.21092 | 2522 ft | 131 kts | 164° |
| 2026-05-05 10:20 | 41.95768 | 12.21459 | 2345 ft | 132 kts | 166° |
| 2026-05-05 10:20 | 41.94894 | 12.21826 | 2169 ft | 130 kts | 166° |
| 2026-05-05 10:20 | 41.94035 | 12.22189 | 2003 ft | 129 kts | 165° |
| 2026-05-05 10:20 | 41.93179 | 12.22549 | 1827 ft | 129 kts | 164° |
| 2026-05-05 10:21 | 41.92335 | 12.22900 | 1673 ft | 128 kts | 163° |
| 2026-05-05 10:21 | 41.91485 | 12.23261 | 1482 ft | 129 kts | 163° |
| 2026-05-05 10:21 | 41.90628 | 12.23624 | 1305 ft | 129 kts | 163° |
| 2026-05-05 10:21 | 41.89773 | 12.23989 | 1110 ft | 128 kts | 162° |
| 2026-05-05 10:22 | 41.88927 | 12.24347 | 933 ft | 127 kts | 163° |
| 2026-05-05 10:22 | 41.88068 | 12.24699 | 762 ft | 132 kts | 161° |
| 2026-05-05 10:22 | 41.87186 | 12.25067 | 654 ft | 134 kts | 161° |
| 2026-05-05 10:22 | 41.86305 | 12.25436 | 430 ft | 130 kts | 161° |
| 2026-05-05 10:23 | 41.85460 | 12.25784 | 238 ft | 129 kts | 161° |
| 2026-05-05 10:23 | 41.84597 | 12.26149 | 89 ft | 131 kts | 161° |
| 2026-05-05 10:23 | 41.83772 | 12.26497 | 19 ft | 111 kts | 162° |
| 2026-05-05 10:23 | 41.83205 | 12.26733 | 11 ft | 60 kts | 162° |
| 2026-05-05 10:24 | 41.82923 | 12.26845 | 12 ft | 32 kts | 168° |
| 2026-05-05 10:24 | 41.82717 | 12.26863 | 11 ft | 29 kts | 186° |
| 2026-05-05 10:24 | 41.82524 | 12.26814 | 11 ft | 27 kts | 192° |
| 2026-05-05 10:24 | 41.82339 | 12.26781 | 11 ft | 27 kts | 174° |
| 2026-05-05 10:25 | 41.82161 | 12.26846 | 11 ft | 27 kts | 162° |
| 2026-05-05 10:25 | 41.81984 | 12.26921 | 11 ft | 26 kts | 162° |
| 2026-05-05 10:25 | 41.81811 | 12.26994 | 14 ft | 26 kts | 162° |
| 2026-05-05 10:25 | 41.81642 | 12.27064 | 12 ft | 25 kts | 162° |
| 2026-05-05 10:26 | 41.81478 | 12.27133 | 12 ft | 25 kts | 162° |
| 2026-05-05 10:26 | 41.81313 | 12.27202 | 13 ft | 25 kts | 162° |
| 2026-05-05 10:26 | 41.81146 | 12.27270 | 12 ft | 25 kts | 162° |
| 2026-05-05 10:26 | 41.80981 | 12.27341 | 14 ft | 25 kts | 163° |
| 2026-05-05 10:27 | 41.80810 | 12.27327 | 13 ft | 25 kts | 189° |
| 2026-05-05 10:27 | 41.80659 | 12.27229 | 13 ft | 26 kts | 242° |
| 2026-05-05 10:27 | 41.80592 | 12.26995 | 13 ft | 28 kts | 249° |
| 2026-05-05 10:27 | 41.80523 | 12.26745 | 14 ft | 29 kts | 249° |
| 2026-05-05 10:28 | 41.80456 | 12.26498 | 15 ft | 24 kts | 249° |
| 2026-05-05 10:28 | 41.80355 | 12.26368 | 16 ft | 22 kts | 168° |
| 2026-05-05 10:28 | 41.80206 | 12.26399 | 14 ft | 23 kts | 202° |
| 2026-05-05 10:28 | 41.80058 | 12.26308 | 15 ft | 24 kts | 205° |
| 2026-05-05 10:29 | 41.79902 | 12.26212 | 15 ft | 24 kts | 205° |
| 2026-05-05 10:29 | 41.79783 | 12.26134 | 16 ft | 13 kts | 211° |
| 2026-05-05 10:29 | 41.79709 | 12.26078 | 14 ft | 13 kts | 205° |
| 2026-05-05 10:29 | 41.79619 | 12.26020 | 14 ft | 15 kts | 205° |
| 2026-05-05 10:30 | 41.79559 | 12.25983 | 16 ft | 6 kts | 205° |
| 2026-05-05 10:30 | 41.79518 | 12.25957 | 14 ft | 7 kts | 205° |
| 2026-05-05 10:30 | 41.79494 | 12.25918 | 14 ft | 5 kts | 269° |
| 2026-05-05 10:30 | 41.79504 | 12.25884 | 15 ft | 3 kts | 295° |
| 2026-05-05 10:31 | 41.79510 | 12.25868 | 14 ft | 1 kts | 295° |
| 2026-05-05 10:31 | 41.79510 | 12.25866 | 14 ft | 0 kts | 295° |